14 a 21/9 - Algunas PP N, Cordillera y extremo sur, más estable en el resto (viento Patagonia, nieve Ushuaia)

Avatar de Usuario
Ale de Castelar
Mensajes: 26852
Registrado: Sab Mar 03, 2012 12:25 pm
Ubicación: Caballito

Re: 14 a 21/9 - Algunas PP N, Cordillera y extremo sur, episodios de inestabilidad muy aislados en el resto

Mensaje por Ale de Castelar » Mar Sep 15, 2020 9:50 pm

Orosmayo, Jujuy


Avatar de Usuario
Diecha
Mensajes: 12466
Registrado: Jue Ago 25, 2011 9:31 pm
Ubicación: Lomas de Zamora

Re: 14 a 21/9 - Algunas PP N, Cordillera y extremo sur, episodios de inestabilidad muy aislados en el resto

Mensaje por Diecha » Mar Sep 15, 2020 10:23 pm

- Resistencia 22 hs: SARE 160100Z 10007KT CAVOK 16/13 Q1014

Imagen
Imagen

Avatar de Usuario
Ale de Castelar
Mensajes: 26852
Registrado: Sab Mar 03, 2012 12:25 pm
Ubicación: Caballito

Re: 14 a 21/9 - Algunas PP N, Cordillera y extremo sur, episodios de inestabilidad muy aislados en el resto

Mensaje por Ale de Castelar » Mar Sep 15, 2020 11:25 pm

Antartida Argentina


Avatar de Usuario
Diecha
Mensajes: 12466
Registrado: Jue Ago 25, 2011 9:31 pm
Ubicación: Lomas de Zamora

Re: 14 a 21/9 - Algunas PP N, Cordillera y extremo sur, episodios de inestabilidad muy aislados en el resto

Mensaje por Diecha » Mar Sep 15, 2020 11:30 pm

- Formosa 23 hs: SARF 160200Z 18004KT CAVOK 16/14 Q1013
- Resistencia 23 hs: SARE 160200Z 08006KT CAVOK 15/12 Q1014

Imagen
Imagen

Avatar de Usuario
Diecha
Mensajes: 12466
Registrado: Jue Ago 25, 2011 9:31 pm
Ubicación: Lomas de Zamora

Re: 14 a 21/9 - Algunas PP N, Cordillera y extremo sur, episodios de inestabilidad muy aislados en el resto

Mensaje por Diecha » Mié Sep 16, 2020 9:48 am

Buenas.

Imagen

Imagen
Spoiler
Mostrar
Imagen
Imagen
Imagen
Imagen
Imagen
Imagen
Imagen
Imagen
Imagen
Imagen
Imagen
Última edición por Diecha el Mié Sep 16, 2020 7:08 pm, editado 1 vez en total.

Avatar de Usuario
Ernest
Mensajes: 11614
Registrado: Vie Jul 17, 2009 10:54 pm
Ubicación: Balvanera, CABA

Re: 14 a 21/9 - Algunas PP N, Cordillera y extremo sur, episodios de inestabilidad muy aislados en el resto

Mensaje por Ernest » Mié Sep 16, 2020 3:32 pm

15 hs

1 ORAN SALTA 29.5 ºC - 34 %
2 SANTIAGO DEL ESTERO SANTIAGO DEL ESTERO 29.2 ºC - 24 %
3 TUCUMAN TUCUMAN 28.2 ºC - 24 %
4 CATAMARCA CATAMARCA 28.2 ºC - 16 %
5 JUJUY JUJUY 28.0 ºC - 29 %
6 TARTAGAL SALTA 28.0 ºC - 32 %
7 TERMAS DE RIO HONDO SANTIAGO DEL ESTERO 27.8 ºC - 19 %
8 CHAMICAL LA RIOJA 27.7 ºC - 15 %
9 LA RIOJA LA RIOJA 27.3 ºC - 21 %
10 SALTA SALTA 26.4 ºC - 19 %

90 BARILOCHE RIO NEGRO 10.9 ºC - 41 %
91 GOBERNADOR GREGORES SANTA CRUZ 10.8 ºC - 38 %
92 PUERTO DESEADO SANTA CRUZ 10.5 ºC - 53 %
93 VILLA GESELL BUENOS AIRES 10.4 ºC - 85 %
94 PERITO MORENO SANTA CRUZ 8.6 ºC 3.8 ºC 53 %
95 SAN JULIAN SANTA CRUZ 6.5 ºC 0.9 ºC 56 %
96 USHUAIA TIERRA DEL FUEGO 5.8 ºC 2.5 ºC 44 %
97 RIO GRANDE B.A. TIERRA DEL FUEGO 5.6 ºC -0.1 ºC 79 %
98 SANTA CRUZ SANTA CRUZ 5.3 ºC -0.7 ºC 77 %
99 RIO GALLEGOS SANTA CRUZ 3.0 ºC -2.5 ºC 73 %
Did you want to talk about the weather, or were you just making chitchat?

Twitter: @ErnestoMeteo

Avatar de Usuario
Diecha
Mensajes: 12466
Registrado: Jue Ago 25, 2011 9:31 pm
Ubicación: Lomas de Zamora

Re: 14 a 21/9 - Algunas PP N, Cordillera y extremo sur, episodios de inestabilidad muy aislados en el resto

Mensaje por Diecha » Mié Sep 16, 2020 7:07 pm

Imagen

Imagen
Spoiler
Mostrar
Imagen
Imagen
Imagen
Imagen
Imagen
Imagen
Imagen
Imagen
Imagen
Imagen
Imagen
Última edición por Diecha el Mié Sep 16, 2020 9:35 pm, editado 1 vez en total.

Avatar de Usuario
Diecha
Mensajes: 12466
Registrado: Jue Ago 25, 2011 9:31 pm
Ubicación: Lomas de Zamora

Re: 14 a 21/9 - Algunas PP N, Cordillera y extremo sur, episodios de inestabilidad muy aislados en el resto

Mensaje por Diecha » Mié Sep 16, 2020 9:35 pm

Imagen

Imagen
Spoiler
Mostrar
Imagen
Imagen
Imagen
Imagen
Imagen
Imagen
Imagen
Imagen
Última edición por Diecha el Jue Sep 17, 2020 10:24 am, editado 1 vez en total.


Avatar de Usuario
Diecha
Mensajes: 12466
Registrado: Jue Ago 25, 2011 9:31 pm
Ubicación: Lomas de Zamora

Re: 14 a 21/9 - Algunas PP N, Cordillera y extremo sur, episodios de inestabilidad muy aislados en el resto

Mensaje por Diecha » Mié Sep 16, 2020 11:16 pm

- Comodoro Rivadavia 20 hs: SAVC 162300Z 32009KT CAVOK 15/04 Q0993
- Comodoro Rivadavia 20:32 hs: SAVC 162332Z 32020G36KT CAVOK 15/04 Q0992 (ráfaga de 67 Km/h)
- Comodoro Rivadavia 21 hs: SAVC 170000Z 32031G44KT CAVOK 15/02 Q0990 (ráfaga de 81 Km/h)
- Comodoro Rivadavia 22 hs: SAVC 170100Z 29031G50KT CAVOK 15/02 Q0989 (ráfaga de 93 Km/h)
- Comodoro Rivadavia 23 hs: SAVC 170200Z 29038G58KT CAVOK 14/02 Q0989 (ráfaga de 107 Km/h)

Responder